Time;durP1;ratioP1;P1;durP2;ratioP2;P2;SDS_P1;SDS_P2;PMS_P1;PMS_P2;Temp;Humidity;BMP_temperature;BMP_pressure;BME280_temperature;BME280_humidity;BME280_pressure;Samples;Min_cycle;Max_cycle;Signal;HPM_P1;HPM_P2
2021/12/14 00:00:26;;;;;;;10.93;7.40;;;;;;;7.24;98.89;102527.41;5171499;28;20409;-72
2021/12/14 00:02:58;;;;;;;9.63;7.63;;;;;;;7.23;99.02;102529.13;5170882;28;20049;-73
2021/12/14 00:05:31;;;;;;;10.18;8.30;;;;;;;7.22;99.27;102535.16;5171788;28;20039;-73
2021/12/14 00:08:05;;;;;;;10.25;8.38;;;;;;;7.23;99.34;102531.72;5171212;28;20041;-74
2021/12/14 00:13:24;;;;;;;9.60;8.00;;;;;;;7.22;99.61;102529.97;5171632;28;20046;-74
2021/12/14 00:15:57;;;;;;;10.32;8.05;;;;;;;7.21;99.64;102525.63;5171206;28;20142;-71
2021/12/14 00:18:28;;;;;;;9.88;7.82;;;;;;;7.21;99.82;102528.22;5170732;28;20042;-73
2021/12/14 00:21:06;;;;;;;9.57;7.83;;;;;;;7.20;99.95;102523.84;5255773;23;20064;-70
2021/12/14 00:26:27;;;;;;;9.13;7.72;;;;;;;7.16;100.00;102527.19;5236037;28;20045;-71
2021/12/14 00:28:59;;;;;;;10.27;7.80;;;;;;;7.17;100.00;102526.34;5247275;28;20025;-74
2021/12/14 00:31:30;;;;;;;10.27;8.57;;;;;;;7.17;100.00;102531.53;5240683;28;20037;-71
2021/12/14 00:34:05;;;;;;;11.33;8.77;;;;;;;7.18;100.00;102525.53;5235157;28;20099;-72
2021/12/14 00:36:38;;;;;;;10.70;8.55;;;;;;;7.16;100.00;102528.91;5247785;28;20550;-73
2021/12/14 00:39:09;;;;;;;8.95;7.93;;;;;;;7.16;100.00;102529.78;5255859;28;20035;-73
2021/12/14 00:41:44;;;;;;;8.87;7.93;;;;;;;7.17;100.00;102541.91;5254618;28;20119;-71
2021/12/14 00:44:15;;;;;;;11.43;9.00;;;;;;;7.14;100.00;102540.97;5255105;28;20039;-71
2021/12/14 00:46:48;;;;;;;11.80;8.00;;;;;;;7.16;100.00;102552.25;5251120;28;20489;-72
2021/12/14 00:49:20;;;;;;;;;;;;;;;7.18;100.00;102554.06;5235057;28;20492;-71
2021/12/14 00:51:52;;;;;;;10.25;8.73;;;;;;;7.15;100.00;102553.06;5247029;28;19959;-71
2021/12/14 00:54:23;;;;;;;10.37;8.90;;;;;;;7.09;100.00;102562.44;5254859;28;20040;-71
2021/12/14 00:56:55;;;;;;;14.67;8.80;;;;;;;7.10;100.00;102566.78;5254926;28;20275;-73
2021/12/14 00:59:26;;;;;;;10.50;8.83;;;;;;;7.09;100.00;102571.94;5254069;28;20025;-71
2021/12/14 01:02:04;;;;;;;10.33;9.00;;;;;;;7.09;100.00;102574.53;5255049;28;20075;-72
2021/12/14 01:04:40;;;;;;;13.02;9.52;;;;;;;7.10;100.00;102576.31;5247091;28;20083;-72
2021/12/14 01:07:16;;;;;;;11.63;9.15;;;;;;;7.07;100.00;102571.00;5254889;28;20087;-73
2021/12/14 01:09:50;;;;;;;10.85;8.23;;;;;;;7.08;100.00;102555.50;5254692;28;20033;-72
2021/12/14 01:12:35;;;;;;;13.05;8.98;;;;;;;7.12;100.00;102553.88;5254868;28;20063;-71
2021/12/14 01:15:41;;;;;;;11.15;8.15;;;;;;;7.11;100.00;102547.78;5254482;28;20095;-72
2021/12/14 01:18:28;;;;;;;13.85;9.60;;;;;;;7.10;100.00;102548.63;5255325;28;20477;-71
2021/12/14 01:21:14;;;;;;;11.52;9.95;;;;;;;7.09;100.00;102552.06;5252216;28;20068;-71
2021/12/14 01:23:47;;;;;;;11.40;8.77;;;;;;;7.08;100.00;102552.00;5254663;28;20041;-73
2021/12/14 01:26:19;;;;;;;11.48;10.15;;;;;;;7.08;100.00;102557.19;5254847;28;20040;-73
2021/12/14 01:28:51;;;;;;;10.23;9.23;;;;;;;7.08;100.00;102544.22;5254864;28;20032;-72
2021/12/14 01:31:29;;;;;;;10.63;9.53;;;;;;;7.09;100.00;102536.50;5255122;28;20052;-73
2021/12/14 01:34:09;;;;;;;12.60;10.02;;;;;;;7.06;100.00;102539.00;5254303;28;20037;-73
2021/12/14 01:36:45;;;;;;;11.25;8.77;;;;;;;7.05;100.00;102539.84;5254812;28;20036;-73
2021/12/14 01:39:34;;;;;;;11.20;9.15;;;;;;;7.05;100.00;102529.47;5254653;28;20029;-73
2021/12/14 01:42:10;;;;;;;16.35;9.43;;;;;;;7.04;100.00;102525.13;5258374;28;20193;-73
2021/12/14 01:44:55;;;;;;;13.68;8.60;;;;;;;7.03;100.00;102525.06;5257390;28;20025;-75
2021/12/14 01:47:55;;;;;;;9.07;7.57;;;;;;;7.06;100.00;102533.81;5258389;28;20103;-74
2021/12/14 01:50:39;;;;;;;13.52;8.70;;;;;;;7.01;100.00;102529.34;5255218;28;20060;-72
2021/12/14 01:53:13;;;;;;;10.18;7.55;;;;;;;7.02;100.00;102538.84;5258376;28;20033;-71
2021/12/14 01:55:50;;;;;;;12.23;7.75;;;;;;;7.00;100.00;102538.81;5240495;28;20049;-71
2021/12/14 01:58:24;;;;;;;10.48;7.30;;;;;;;7.00;100.00;102522.38;5258184;28;20085;-71
2021/12/14 02:01:01;;;;;;;9.75;7.20;;;;;;;6.99;99.78;102515.44;5257752;28;20037;-71
2021/12/14 02:03:40;;;;;;;10.70;6.63;;;;;;;6.96;99.75;102511.03;5257939;28;20160;-71
2021/12/14 02:06:16;;;;;;;8.00;6.68;;;;;;;6.97;99.52;102509.31;5240708;28;20029;-72
2021/12/14 02:08:55;;;;;;;9.75;6.45;;;;;;;6.97;99.28;102506.72;5258294;28;20420;-71
2021/12/14 02:11:32;;;;;;;9.90;6.60;;;;;;;6.93;98.96;102492.81;5258544;28;20385;-73
2021/12/14 02:14:05;;;;;;;8.00;6.28;;;;;;;6.92;98.85;102484.16;5257795;28;20476;-74
2021/12/14 02:16:38;;;;;;;7.45;6.10;;;;;;;6.92;98.92;102498.81;5257780;28;20025;-72
2021/12/14 02:22:16;;;;;;;7.68;6.55;;;;;;;6.97;98.55;102504.13;548957;26;21062;-74
2021/12/14 02:24:50;;;;;;;7.57;5.90;;;;;;;6.91;98.45;102497.94;5291126;28;20128;-74
2021/12/14 02:27:21;;;;;;;8.05;5.88;;;;;;;6.92;98.22;102504.00;5299989;28;20205;-72
2021/12/14 02:29:52;;;;;;;9.47;5.70;;;;;;;6.90;98.20;102496.16;5299536;28;20024;-73
2021/12/14 02:32:26;;;;;;;9.13;6.17;;;;;;;6.94;98.19;102498.03;5299474;28;20467;-73
2021/12/14 02:35:03;;;;;;;9.85;6.43;;;;;;;6.91;98.07;102505.72;5298577;28;20028;-74
2021/12/14 02:37:35;;;;;;;8.85;6.10;;;;;;;6.90;97.75;102505.66;5299868;28;20118;-73
2021/12/14 02:40:18;;;;;;;8.37;6.27;;;;;;;6.86;97.88;102509.91;5299027;28;20567;-73
2021/12/14 02:42:53;;;;;;;8.57;6.28;;;;;;;6.86;98.15;102517.66;5298908;28;20040;-73
2021/12/14 02:45:25;;;;;;;8.45;5.97;;;;;;;6.86;97.80;102515.06;5298016;28;20032;-71
2021/12/14 02:47:56;;;;;;;8.17;5.60;;;;;;;6.84;97.75;102521.94;5299502;28;20583;-71
2021/12/14 02:50:28;;;;;;;9.80;6.83;;;;;;;6.83;97.87;102514.97;5299270;28;20092;-72
2021/12/14 02:53:01;;;;;;;7.73;6.20;;;;;;;6.83;97.89;102525.34;5299175;28;20031;-71
2021/12/14 02:55:33;;;;;;;8.05;5.78;;;;;;;6.81;97.92;102514.06;5299437;28;20063;-71
2021/12/14 02:58:07;;;;;;;7.37;5.57;;;;;;;6.82;97.88;102508.03;5298817;28;20109;-71
2021/12/14 03:00:50;;;;;;;7.78;6.05;;;;;;;6.83;97.76;102491.66;5299026;28;20051;-72
2021/12/14 03:03:22;;;;;;;7.88;6.38;;;;;;;6.80;97.55;102488.09;5299315;28;20071;-72
2021/12/14 03:05:53;;;;;;;8.00;6.37;;;;;;;6.82;97.70;102476.91;5298523;28;20035;-70
2021/12/14 03:08:28;;;;;;;8.43;6.03;;;;;;;6.81;97.33;102484.66;5298915;28;20032;-74
2021/12/14 03:11:11;;;;;;;9.27;6.30;;;;;;;6.74;97.71;102491.38;5298745;28;20035;-72
2021/12/14 03:13:52;;;;;;;9.90;6.55;;;;;;;6.80;97.78;102480.31;5298925;28;20036;-72
2021/12/14 03:16:28;;;;;;;8.73;6.90;;;;;;;6.75;97.79;102473.28;5299071;28;20032;-72
2021/12/14 03:19:00;;;;;;;13.43;6.75;;;;;;;6.75;97.78;102468.09;5299001;28;20081;-72
2021/12/14 03:21:38;;;;;;;10.65;6.65;;;;;;;6.71;97.63;102470.53;5319812;28;20066;-72
2021/12/14 03:24:13;;;;;;;8.88;6.32;;;;;;;6.72;97.84;102460.22;5320029;28;20449;-71
2021/12/14 03:26:49;;;;;;;8.32;6.50;;;;;;;6.72;98.00;102460.22;5319842;28;20482;-73
2021/12/14 03:29:26;;;;;;;10.10;7.30;;;;;;;6.70;98.04;102455.84;5318454;28;20024;-72
2021/12/14 03:31:59;;;;;;;9.32;6.93;;;;;;;6.71;98.04;102461.06;5320032;28;20028;-74
2021/12/14 03:34:34;;;;;;;10.38;7.78;;;;;;;6.69;98.11;102464.44;5319452;28;20050;-72
2021/12/14 03:37:11;;;;;;;11.65;8.80;;;;;;;6.69;98.12;102467.03;5319527;28;20054;-72
2021/12/14 03:39:47;;;;;;;11.73;8.48;;;;;;;6.64;98.34;102466.88;5318765;28;20059;-71
2021/12/14 03:42:36;;;;;;;9.68;8.45;;;;;;;6.66;98.64;102456.56;5318406;28;20031;-70
2021/12/14 03:45:13;;;;;;;9.88;8.88;;;;;;;6.68;98.58;102458.38;5318459;28;20475;-71
2021/12/14 03:47:54;;;;;;;11.90;9.10;;;;;;;6.65;98.71;102470.34;5318618;28;20114;-70
2021/12/14 03:50:30;;;;;;;12.05;8.90;;;;;;;6.65;98.88;102468.66;5318236;28;20024;-71
2021/12/14 03:53:03;;;;;;;12.05;9.63;;;;;;;6.68;98.71;102478.22;5318733;28;20060;-70
2021/12/14 03:55:43;;;;;;;12.25;9.52;;;;;;;6.69;98.49;102498.13;5318232;28;20144;-70
2021/12/14 03:58:19;;;;;;;16.13;10.32;;;;;;;6.63;99.10;102511.75;5318798;28;20058;-72
2021/12/14 04:00:56;;;;;;;14.05;9.75;;;;;;;6.62;99.24;102511.72;5317842;28;20038;-72
2021/12/14 04:03:28;;;;;;;13.07;10.77;;;;;;;6.62;99.21;102509.13;5317071;28;20047;-72
2021/12/14 04:06:00;;;;;;;12.57;10.82;;;;;;;6.62;99.23;102516.88;5318551;28;20027;-71
2021/12/14 04:08:32;;;;;;;13.73;11.13;;;;;;;6.60;99.59;102521.16;5318022;28;20028;-71
2021/12/14 04:11:07;;;;;;;15.85;11.40;;;;;;;6.62;99.57;102527.25;5318285;28;20024;-72
2021/12/14 04:13:44;;;;;;;14.15;11.23;;;;;;;6.62;99.66;102529.84;5317781;28;20016;-71
2021/12/14 04:16:21;;;;;;;13.70;10.80;;;;;;;6.64;99.67;102528.22;5318208;28;20352;-71
2021/12/14 04:18:54;;;;;;;14.15;11.32;;;;;;;6.65;99.44;102517.00;5317651;28;20108;-71
2021/12/14 04:21:26;;;;;;;14.82;12.10;;;;;;;6.68;99.43;102514.50;5318117;28;20164;-72
2021/12/14 04:23:58;;;;;;;18.47;13.20;;;;;;;6.65;99.52;102509.22;5315346;28;20059;-72
2021/12/14 04:26:29;;;;;;;17.57;13.20;;;;;;;6.66;99.53;102505.81;5317855;28;20039;-73
2021/12/14 04:29:03;;;;;;;14.97;12.93;;;;;;;6.66;99.41;102513.56;5317941;28;20502;-73
2021/12/14 04:31:36;;;;;;;15.77;12.60;;;;;;;6.64;99.48;102517.84;5317764;28;20110;-71
2021/12/14 04:34:08;;;;;;;15.00;12.40;;;;;;;6.65;99.57;102517.00;5317724;28;20031;-72
2021/12/14 04:36:43;;;;;;;14.32;12.07;;;;;;;6.63;99.57;102508.28;5317912;28;20088;-71
2021/12/14 04:53:20;;;;;;;16.13;14.18;;;;;;;6.62;99.72;102493.56;5322123;28;20031;-72
2021/12/14 04:55:57;;;;;;;16.40;13.15;;;;;;;6.65;99.44;102488.47;5321741;28;20104;-70
2021/12/14 04:58:33;;;;;;;19.60;14.52;;;;;;;6.61;99.70;102487.53;5322789;28;20038;-71
2021/12/14 05:01:07;;;;;;;19.35;14.70;;;;;;;6.59;99.68;102491.78;5321375;28;20443;-70
2021/12/14 05:03:44;;;;;;;21.45;14.75;;;;;;;6.60;99.87;102485.78;5321932;28;20035;-72
2021/12/14 05:06:18;;;;;;;19.33;15.23;;;;;;;6.60;99.69;102484.88;5321767;28;20058;-72
2021/12/14 05:09:26;;;;;;;17.55;14.65;;;;;;;6.60;99.97;102496.16;5321747;28;20432;-71
2021/12/14 05:12:01;;;;;;;18.30;14.43;;;;;;;6.56;99.88;102489.97;5321826;28;20070;-71
2021/12/14 05:14:34;;;;;;;20.15;15.40;;;;;;;6.57;99.77;102488.28;5324397;28;20043;-70
2021/12/14 05:17:13;;;;;;;17.38;14.48;;;;;;;6.59;99.92;102477.97;5306456;28;20045;-71
2021/12/14 05:19:46;;;;;;;22.77;15.35;;;;;;;6.58;99.80;102479.66;5305942;28;20406;-71
2021/12/14 05:22:23;;;;;;;19.33;15.45;;;;;;;6.59;99.78;102476.22;5326408;28;20031;-72
2021/12/14 05:25:03;;;;;;;18.58;14.93;;;;;;;6.59;99.81;102475.38;5328243;28;20047;-71
2021/12/14 05:27:43;;;;;;;20.88;15.52;;;;;;;6.53;99.71;102476.91;5329443;28;20031;-71
2021/12/14 05:30:17;;;;;;;18.48;14.32;;;;;;;6.53;100.00;102482.09;5327206;28;20043;-72
2021/12/14 05:32:49;;;;;;;21.25;16.05;;;;;;;6.51;99.99;102480.31;5327078;28;20031;-71
2021/12/14 05:35:20;;;;;;;21.43;16.20;;;;;;;6.52;100.00;102482.03;5329305;28;20089;-72
2021/12/14 05:37:54;;;;;;;21.13;16.00;;;;;;;6.49;100.00;102488.03;5266229;23;20094;-75
2021/12/14 05:43:12;;;;;;;20.02;16.58;;;;;;;6.46;100.00;102479.28;5244453;28;20033;-70
2021/12/14 05:45:47;;;;;;;24.02;17.58;;;;;;;6.49;100.00;102481.97;5242102;28;20047;-73
2021/12/14 05:48:32;;;;;;;22.27;16.42;;;;;;;6.49;100.00;102488.03;5801807;22;20004;-71
2021/12/14 05:51:09;;;;;;;22.35;17.30;;;;;;;6.50;100.00;102484.59;5259602;28;20074;-74
2021/12/14 05:53:45;;;;;;;22.13;17.67;;;;;;;6.47;100.00;102488.78;5259550;28;20430;-71
2021/12/14 05:56:20;;;;;;;25.42;18.00;;;;;;;6.49;100.00;102481.97;5257252;28;20020;-72
2021/12/14 05:58:54;;;;;;;21.73;17.55;;;;;;;6.50;100.00;102487.16;5260298;28;20028;-72
2021/12/14 06:01:30;;;;;;;24.60;19.38;;;;;;;6.45;100.00;102487.88;5258705;28;20037;-72
2021/12/14 06:04:05;;;;;;;26.35;19.45;;;;;;;6.45;100.00;102488.75;5259284;28;20065;-72
2021/12/14 06:06:41;;;;;;;24.77;18.77;;;;;;;6.46;100.00;102505.19;5236632;28;20108;-71
2021/12/14 06:09:28;;;;;;;23.98;18.20;;;;;;;6.48;100.00;102500.94;5237620;28;20033;-72
2021/12/14 06:12:05;;;;;;;21.75;18.15;;;;;;;6.46;100.00;102492.25;5237354;28;20160;-73
2021/12/14 06:14:43;;;;;;;24.83;18.98;;;;;;;6.46;100.00;102503.47;5237396;28;20036;-71
2021/12/14 06:17:14;;;;;;;24.20;18.92;;;;;;;6.46;100.00;102511.25;5237385;28;20025;-71
2021/12/14 06:19:51;;;;;;;26.30;19.30;;;;;;;6.46;100.00;102510.38;5237330;28;20082;-71
2021/12/14 06:22:24;;;;;;;24.92;19.27;;;;;;;6.45;100.00;102512.06;5236918;28;20028;-73
2021/12/14 06:25:02;;;;;;;24.05;19.33;;;;;;;6.45;100.00;102519.84;5237047;28;20037;-71
2021/12/14 06:27:34;;;;;;;25.00;19.40;;;;;;;6.47;100.00;102518.19;5236689;28;20192;-72
2021/12/14 06:30:09;;;;;;;25.27;19.50;;;;;;;6.46;100.00;102516.44;5237324;28;20033;-70
2021/12/14 06:32:45;;;;;;;25.15;19.25;;;;;;;6.45;100.00;102517.25;5236837;28;20030;-72
2021/12/14 06:35:21;;;;;;;27.42;20.58;;;;;;;6.45;100.00;102512.06;5237312;28;20029;-72
2021/12/14 06:38:32;;;;;;;33.33;21.10;;;;;;;6.48;100.00;102519.94;5237107;28;20106;-73
2021/12/14 06:41:15;;;;;;;28.70;21.02;;;;;;;6.43;100.00;102511.13;5236560;28;20042;-71
2021/12/14 06:43:56;;;;;;;27.73;20.58;;;;;;;6.43;100.00;102518.03;5236890;28;20161;-76
2021/12/14 06:46:36;;;;;;;27.27;22.27;;;;;;;6.41;100.00;102523.19;5237075;28;20030;-72
2021/12/14 06:49:10;;;;;;;29.25;21.45;;;;;;;6.45;100.00;102524.16;5251737;28;20467;-72
2021/12/14 06:51:56;;;;;;;28.70;20.55;;;;;;;6.43;100.00;102521.50;5236533;28;20311;-73
2021/12/14 06:54:29;;;;;;;30.95;21.63;;;;;;;6.42;100.00;102530.09;5217856;28;20037;-72
2021/12/14 06:57:03;;;;;;;27.08;21.08;;;;;;;6.43;100.00;102528.41;5236519;28;20033;-74
2021/12/14 06:59:35;;;;;;;28.23;21.02;;;;;;;6.42;100.00;102542.19;5236696;28;20396;-72
2021/12/14 07:02:09;;;;;;;29.03;22.07;;;;;;;6.45;100.00;102532.78;5218876;28;20033;-71
2021/12/14 07:04:48;;;;;;;29.48;21.50;;;;;;;6.43;100.00;102536.19;5236456;28;20116;-72
2021/12/14 07:07:25;;;;;;;30.75;21.73;;;;;;;6.43;100.00;102541.34;5236239;28;20068;-72
2021/12/14 07:10:01;;;;;;;30.00;22.08;;;;;;;6.43;100.00;102544.81;5235956;28;20477;-71
2021/12/14 07:12:36;;;;;;;30.73;21.75;;;;;;;6.44;100.00;102543.09;5235773;28;20378;-71
2021/12/14 07:15:10;;;;;;;29.98;20.90;;;;;;;6.44;100.00;102538.81;5236359;28;20039;-72
2021/12/14 07:17:49;;;;;;;33.90;22.85;;;;;;;6.43;100.00;102552.59;5235392;28;20052;-74
2021/12/14 07:20:49;;;;;;;31.77;22.75;;;;;;;6.46;100.00;102568.25;5235479;28;20025;-73
2021/12/14 07:23:35;;;;;;;34.28;22.80;;;;;;;6.42;100.00;102570.66;5212777;28;20133;-73
2021/12/14 07:26:12;;;;;;;30.73;23.33;;;;;;;6.43;100.00;102569.84;5212746;28;20061;-73
2021/12/14 07:28:45;;;;;;;30.02;23.20;;;;;;;6.42;100.00;102566.34;5212636;28;20048;-71
2021/12/14 07:31:20;;;;;;;30.20;23.33;;;;;;;6.46;100.00;102577.72;5196664;28;20088;-73
2021/12/14 07:33:58;;;;;;;38.10;21.95;;;;;;;6.47;100.00;102580.38;5212095;28;20046;-73
2021/12/14 07:36:33;;;;;;;33.15;24.65;;;;;;;6.46;100.00;102576.00;5212688;28;20465;-73
2021/12/14 07:39:08;;;;;;;30.45;22.63;;;;;;;6.45;100.00;102582.00;5212181;28;20378;-71
2021/12/14 07:41:46;;;;;;;31.80;23.42;;;;;;;6.47;100.00;102580.38;5212132;28;20530;-70
2021/12/14 07:44:22;;;;;;;33.20;23.48;;;;;;;6.46;100.00;102580.31;5212680;28;20130;-71
2021/12/14 07:47:15;;;;;;;32.63;24.67;;;;;;;6.44;100.00;102579.38;5196003;28;20041;-73
2021/12/14 07:49:54;;;;;;;33.72;24.60;;;;;;;6.49;100.00;102594.25;5212761;28;20628;-71
2021/12/14 07:52:29;;;;;;;33.03;24.70;;;;;;;6.50;100.00;102597.72;5219819;28;20041;-72
2021/12/14 07:55:09;;;;;;;32.45;23.83;;;;;;;6.49;100.00;102601.16;5213369;28;20077;-71
2021/12/14 07:57:41;;;;;;;31.23;22.70;;;;;;;6.49;100.00;102609.78;5212300;28;20120;-72
2021/12/14 08:00:20;;;;;;;41.03;24.83;;;;;;;6.50;100.00;102616.72;5216920;28;20462;-73
2021/12/14 08:02:57;;;;;;;34.65;24.70;;;;;;;6.54;100.00;102621.19;5234982;28;20041;-72
2021/12/14 08:05:35;;;;;;;31.77;23.67;;;;;;;6.54;100.00;102620.31;5235062;28;20083;-73
2021/12/14 08:08:15;;;;;;;33.03;24.73;;;;;;;6.50;100.00;102619.31;5234742;28;20039;-72
2021/12/14 08:11:09;;;;;;;34.55;24.58;;;;;;;6.53;100.00;102616.81;5235269;28;20060;-73
2021/12/14 08:13:45;;;;;;;33.33;24.45;;;;;;;6.54;100.00;102618.59;5234942;28;20083;-73
2021/12/14 08:16:18;;;;;;;35.00;24.67;;;;;;;6.55;100.00;102620.38;5234882;28;20536;-72
2021/12/14 08:18:50;;;;;;;;;;;;;;;6.60;100.00;102615.34;5235188;28;20079;-73
2021/12/14 08:21:24;;;;;;;37.25;24.80;;;;;;;6.56;100.00;102616.94;5290553;23;21010;-71
2021/12/14 08:24:03;;;;;;;36.33;24.88;;;;;;;6.57;100.00;102620.41;5255220;28;20147;-73
2021/12/14 08:26:51;;;;;;;35.20;24.85;;;;;;;6.57;100.00;102615.25;5255226;28;20027;-73
2021/12/14 08:29:28;;;;;;;31.67;22.63;;;;;;;6.61;100.00;102623.97;5254784;28;20096;-73
2021/12/14 08:32:13;;;;;;;36.30;25.95;;;;;;;6.65;100.00;102615.47;5254888;28;20029;-72
2021/12/14 08:34:47;;;;;;;37.67;24.67;;;;;;;6.65;100.00;102618.06;5255653;28;20048;-73
2021/12/14 08:37:32;;;;;;;51.05;25.95;;;;;;;6.64;100.00;102614.59;5254894;28;20052;-73
2021/12/14 08:40:16;;;;;;;38.45;24.45;;;;;;;6.67;100.00;102616.41;5254632;28;20037;-71
2021/12/14 08:43:02;;;;;;;38.55;26.63;;;;;;;6.66;100.00;102623.28;5254866;28;20032;-72
2021/12/14 08:45:47;;;;;;;35.47;25.35;;;;;;;6.70;100.00;102626.88;5269445;28;20032;-71
2021/12/14 08:48:30;;;;;;;34.92;25.95;;;;;;;6.68;99.98;102621.66;5256374;28;20496;-71
2021/12/14 08:51:12;;;;;;;;;;;;;;;6.74;99.89;102620.97;5261827;28;20523;-70
2021/12/14 08:53:51;;;;;;;36.03;25.85;;;;;;;6.73;99.79;102627.00;5261090;28;19927;-71
2021/12/14 08:56:25;;;;;;;33.22;24.88;;;;;;;6.73;99.46;102632.19;5261341;28;20475;-71
2021/12/14 08:58:57;;;;;;;32.90;24.15;;;;;;;6.76;99.65;102637.44;5261352;28;20396;-72
2021/12/14 09:01:30;;;;;;;35.73;25.30;;;;;;;6.77;99.65;102631.44;5265990;28;20029;-71
2021/12/14 09:04:09;;;;;;;35.35;24.98;;;;;;;6.84;99.46;102640.28;5262958;28;20056;-72
2021/12/14 09:06:44;;;;;;;36.15;27.15;;;;;;;6.86;99.31;102641.19;5261886;28;20040;-72
2021/12/14 09:09:19;;;;;;;34.35;25.48;;;;;;;6.92;99.16;102631.94;5262454;28;20043;-73
2021/12/14 09:12:24;;;;;;;38.92;26.40;;;;;;;6.98;98.70;102628.63;5262037;28;20499;-73
2021/12/14 09:15:04;;;;;;;35.28;27.13;;;;;;;7.04;98.27;102634.03;5259565;28;20115;-72
2021/12/14 09:17:37;;;;;;;34.15;25.70;;;;;;;7.10;98.25;102635.94;5262067;28;20021;-72
2021/12/14 09:20:11;;;;;;;36.72;25.70;;;;;;;7.19;97.99;102635.34;5556924;22;20548;-73
2021/12/14 09:22:47;;;;;;;36.28;26.98;;;;;;;7.20;97.47;102644.88;5240869;28;21039;-71
2021/12/14 09:25:24;;;;;;;30.45;24.83;;;;;;;7.29;97.49;102639.97;5240928;28;20045;-72
2021/12/14 09:27:58;;;;;;;32.97;26.42;;;;;;;7.34;96.92;102641.00;5240411;28;20044;-71
2021/12/14 09:30:34;;;;;;;34.72;25.20;;;;;;;7.39;96.43;102652.41;5241179;28;20175;-71
2021/12/14 09:33:06;;;;;;;35.42;24.77;;;;;;;7.41;96.08;102650.72;5240144;28;20034;-72
2021/12/14 09:35:38;;;;;;;32.30;24.93;;;;;;;7.42;96.13;102644.72;5240583;28;20036;-72
2021/12/14 09:38:13;;;;;;;33.40;25.50;;;;;;;7.51;95.70;102636.31;5240912;28;20524;-72
2021/12/14 09:40:53;;;;;;;34.92;24.90;;;;;;;7.48;95.37;102638.81;5240661;28;20025;-71
2021/12/14 09:43:24;;;;;;;34.78;25.70;;;;;;;7.50;95.81;102644.91;5240151;28;20033;-72
2021/12/14 09:45:59;;;;;;;33.60;27.77;;;;;;;7.48;95.50;102647.47;5240712;28;20036;-71
2021/12/14 09:48:38;;;;;;;33.58;26.02;;;;;;;7.44;95.88;102636.97;5240330;28;20052;-73
2021/12/14 09:51:16;;;;;;;36.53;25.42;;;;;;;7.48;96.03;102639.69;5240508;28;20065;-70
2021/12/14 09:53:52;;;;;;;31.65;25.85;;;;;;;7.46;96.07;102632.69;5240252;28;20033;-72
2021/12/14 09:56:28;;;;;;;35.38;25.60;;;;;;;7.52;95.95;102621.59;5240383;28;20098;-72
2021/12/14 09:59:02;;;;;;;33.53;25.52;;;;;;;7.50;95.46;102621.56;5240716;28;20364;-73
2021/12/14 10:01:57;;;;;;;37.67;27.35;;;;;;;7.59;95.63;102616.66;5236853;28;20025;-71
2021/12/14 10:04:39;;;;;;;31.65;24.55;;;;;;;7.61;95.04;102627.94;5219380;28;20432;-72
2021/12/14 10:07:10;;;;;;;33.38;25.42;;;;;;;7.60;95.23;102621.00;5237172;28;20025;-73
2021/12/14 10:09:47;;;;;;;34.33;25.70;;;;;;;7.69;95.19;102624.72;5218682;28;20487;-72
2021/12/14 10:12:51;;;;;;;36.05;26.67;;;;;;;7.78;94.46;102628.44;5236983;28;20038;-71
2021/12/14 10:15:29;;;;;;;35.25;26.58;;;;;;;7.94;94.07;102623.69;5236756;28;20079;-71
2021/12/14 10:18:08;;;;;;;39.80;28.52;;;;;;;7.92;94.05;102628.84;5237116;28;20025;-72
2021/12/14 10:21:11;;;;;;;33.50;25.45;;;;;;;8.12;94.23;102637.16;5236852;28;20055;-72
2021/12/14 10:23:44;;;;;;;33.87;25.67;;;;;;;8.05;92.98;102637.84;5236730;28;20045;-72
2021/12/14 10:26:18;;;;;;;36.47;26.38;;;;;;;8.07;93.36;102632.69;5218788;28;20314;-71
2021/12/14 10:28:54;;;;;;;33.28;24.80;;;;;;;8.12;93.25;102634.56;5236957;28;20057;-72
2021/12/14 10:31:33;;;;;;;35.20;25.13;;;;;;;8.13;93.11;102645.81;5236860;28;20026;-71
2021/12/14 10:34:09;;;;;;;34.70;26.80;;;;;;;8.06;92.91;102636.13;5236525;28;20755;-71
2021/12/14 10:36:44;;;;;;;33.83;25.95;;;;;;;8.13;93.29;102632.84;5236462;28;20108;-71
2021/12/14 10:39:36;;;;;;;33.20;25.08;;;;;;;8.12;93.17;102639.75;5236772;28;20035;-72
2021/12/14 10:45:04;;;;;;;33.67;25.45;;;;;;;8.07;93.46;102646.56;5237141;28;20501;-70
2021/12/14 10:47:36;;;;;;;36.42;26.25;;;;;;;8.11;93.40;102650.09;5236546;28;20025;-70
2021/12/14 10:50:15;;;;;;;37.17;27.87;;;;;;;8.11;93.52;102650.09;5236404;28;20028;-72
2021/12/14 10:52:47;;;;;;;34.92;27.77;;;;;;;8.18;93.29;102646.84;5236221;28;20393;-73
2021/12/14 10:55:26;;;;;;;39.78;27.23;;;;;;;8.19;93.31;102641.72;5251749;28;20139;-72
2021/12/14 10:57:57;;;;;;;38.28;25.55;;;;;;;8.27;92.80;102641.00;5236242;28;20084;-71
2021/12/14 11:00:56;;;;;;;35.53;27.00;;;;;;;8.25;92.16;102647.91;5236544;28;20022;-71
2021/12/14 11:03:34;;;;;;;37.25;27.40;;;;;;;8.16;92.58;102630.31;5248462;28;20472;-72
2021/12/14 11:06:12;;;;;;;37.85;29.13;;;;;;;8.13;92.90;102627.66;5235825;28;20099;-70
2021/12/14 11:09:39;;;;;;;36.80;27.75;;;;;;;8.23;93.44;102634.88;5235795;28;20032;-70
2021/12/14 11:11:58;;;;;;;37.78;27.23;;;;;;;8.34;92.81;102630.84;5235370;28;20033;-71
2021/12/14 11:14:34;;;;;;;38.58;28.23;;;;;;;8.38;92.09;102619.66;5235942;28;20017;-71
2021/12/14 11:20:16;;;;;;;33.42;25.73;;;;;;;8.40;91.71;102619.69;5234964;28;20124;-72
2021/12/14 11:22:56;;;;;;;44.70;29.52;;;;;;;8.38;92.16;102617.06;5235240;28;20092;-72
2021/12/14 11:25:31;;;;;;;36.55;28.63;;;;;;;8.72;91.65;102615.34;5235450;28;20025;-72
2021/12/14 11:28:13;;;;;;;38.35;29.13;;;;;;;8.74;91.01;102613.66;5250503;28;20141;-70
2021/12/14 11:31:01;;;;;;;36.15;27.55;;;;;;;8.78;90.06;102619.81;5234847;28;20033;-71
2021/12/14 11:33:39;;;;;;;35.63;28.02;;;;;;;8.66;90.32;102609.09;5235277;28;20061;-71
2021/12/14 11:36:16;;;;;;;37.13;27.92;;;;;;;8.47;91.28;102603.47;5235580;28;20021;-71
2021/12/14 11:38:55;;;;;;;37.40;26.48;;;;;;;8.60;91.32;102601.16;5235458;28;20037;-72
2021/12/14 11:41:37;;;;;;;39.85;28.88;;;;;;;8.76;91.07;102601.56;5217721;28;20041;-71
2021/12/14 11:44:20;;;;;;;33.95;26.23;;;;;;;8.77;90.53;102597.25;5235209;28;20547;-71
2021/12/14 11:47:04;;;;;;;37.72;27.83;;;;;;;8.79;90.52;102592.09;5235036;28;20127;-74
2021/12/14 11:49:53;;;;;;;35.63;28.13;;;;;;;8.81;90.89;102598.22;5234256;28;20809;-71
2021/12/14 11:52:38;;;;;;;38.65;28.48;;;;;;;8.84;90.58;102593.06;5234183;28;20021;-72
2021/12/14 11:55:19;;;;;;;36.97;30.15;;;;;;;8.88;90.59;102597.50;5234730;28;20065;-72
2021/12/14 11:58:02;;;;;;;37.95;29.05;;;;;;;8.87;90.79;102598.34;5216703;28;20148;-71
2021/12/14 12:00:37;;;;;;;42.58;30.90;;;;;;;8.86;90.53;102601.81;5234823;28;20022;-71
2021/12/14 12:03:29;;;;;;;38.38;28.50;;;;;;;8.89;90.91;102602.75;5234741;28;20060;-75
2021/12/14 12:09:28;;;;;;;40.55;29.98;;;;;;;8.84;91.29;102599.16;5234468;28;20037;-71
2021/12/14 12:12:18;;;;;;;40.17;30.02;;;;;;;8.75;91.49;102606.75;5234877;28;20535;-71
2021/12/14 12:15:00;;;;;;;40.83;29.77;;;;;;;8.84;91.39;102611.25;5234926;28;20029;-70
2021/12/14 12:17:34;;;;;;;39.35;29.65;;;;;;;8.74;91.20;102612.78;5235111;28;20029;-72
2021/12/14 12:20:34;;;;;;;45.70;30.88;;;;;;;8.69;92.17;102604.84;5234883;28;20041;-71
2021/12/14 12:23:07;;;;;;;43.20;31.75;;;;;;;8.62;92.13;102602.97;5234636;28;20033;-70
2021/12/14 12:25:40;;;;;;;42.75;30.85;;;;;;;8.67;92.23;102611.75;5234617;28;20068;-72
2021/12/14 12:28:23;;;;;;;46.50;33.15;;;;;;;8.58;92.79;102606.31;5234707;28;20029;-72
2021/12/14 12:31:00;;;;;;;44.72;32.75;;;;;;;8.57;92.95;102607.19;5234466;28;20031;-71
2021/12/14 12:33:56;;;;;;;64.03;33.08;;;;;;;8.57;93.39;102620.19;5234170;28;20487;-70
2021/12/14 12:36:35;;;;;;;58.55;34.05;;;;;;;8.60;93.32;102604.66;5171119;28;20039;-71
2021/12/14 12:39:15;;;;;;;47.20;32.10;;;;;;;8.59;93.21;102613.28;5170919;28;20041;-72
2021/12/14 12:44:39;;;;;;;49.55;32.42;;;;;;;8.51;93.61;102596.63;5353676;22;20063;-72